Dewey, Wisconsin
Current Conditions -  °F | °C
As of 10:35 PM on Saturday 20 Dec 2014 (Local Time) from KSTE Reporting Station
Haze Haze  
Wind Chill: 22°   Ceiling: 900
Heat Index: 27°   Visibility: 5mi
Dew Point: 25°   Wind: 5mph
Humidity: 91%   Direction: 170°S
Pressure: 30.17"   Gusts: NA
Location:  44.5531°N, 89.5186°W
Report Text: KSTE 210435Z AUTO 17004KT 5SM BR OVC009 M03/M04 A3017 RMK AO2 T10271040
Loading
Personal Weather Stations






























Interactive Weather Map New forecast layout! Learn more

10-Day Weather Forecast

Advertisements
Track Severe Weather on mobile